createdAt,value
2018-03-29T00:01:29.468Z,92926.47
2018-03-29T00:03:57.131Z,92922.30
2018-03-29T00:06:24.798Z,92928.33
2018-03-29T00:08:52.395Z,92931.73
2018-03-29T00:11:21.146Z,92933.23
2018-03-29T00:13:48.821Z,92939.76
2018-03-29T00:16:16.826Z,92939.78
2018-03-29T00:18:44.540Z,92934.52
2018-03-29T00:21:12.203Z,92928.85
2018-03-29T00:23:40.641Z,92931.30
2018-03-29T00:26:08.269Z,92931.81
2018-03-29T00:28:36.006Z,92928.83
2018-03-29T00:31:03.673Z,92933.50
2018-03-29T00:33:31.334Z,92935.41
2018-03-29T00:35:58.997Z,92945.59
2018-03-29T00:38:26.850Z,92946.36
2018-03-29T00:40:54.653Z,92944.26
2018-03-29T00:43:22.437Z,92948.24
2018-03-29T00:45:50.285Z,92954.20
2018-03-29T00:48:17.921Z,92956.84
2018-03-29T00:50:45.709Z,92957.05
2018-03-29T00:53:25.341Z,92957.41
2018-03-29T00:55:53.033Z,92966.01
2018-03-29T00:58:20.685Z,92972.48
2018-03-29T01:00:48.291Z,92975.27
2018-03-29T01:03:15.921Z,92972.99
2018-03-29T01:05:43.574Z,92983.27
2018-03-29T01:08:11.171Z,92981.63
2018-03-29T01:10:38.850Z,92977.97
2018-03-29T01:13:06.756Z,92989.31
2018-03-29T01:15:34.600Z,92990.30
2018-03-29T01:18:03.077Z,92997.00
2018-03-29T01:20:30.689Z,92998.84
2018-03-29T01:22:58.344Z,93000.75
2018-03-29T01:25:25.970Z,93003.16
2018-03-29T01:27:53.568Z,93002.88
2018-03-29T01:30:21.943Z,92994.44
2018-03-29T01:32:49.885Z,92993.98
2018-03-29T01:35:17.762Z,92996.94
2018-03-29T01:37:45.370Z,92998.91
2018-03-29T01:40:13.194Z,92999.23
2018-03-29T01:42:41.547Z,92992.58
2018-03-29T01:45:09.204Z,92992.36
2018-03-29T01:47:37.486Z,92997.52
2018-03-29T01:50:05.158Z,92985.72
2018-03-29T01:52:32.791Z,92986.12
2018-03-29T01:55:00.678Z,92986.78
2018-03-29T01:57:28.427Z,92973.92
2018-03-29T01:59:56.200Z,92970.86
2018-03-29T02:02:23.813Z,92968.66
2018-03-29T02:04:51.580Z,92971.83
2018-03-29T02:07:20.235Z,92971.23
2018-03-29T02:09:48.681Z,92973.27
2018-03-29T02:12:16.325Z,92984.05
2018-03-29T02:14:44.010Z,92982.97
2018-03-29T02:17:11.657Z,92986.36
2018-03-29T02:19:39.309Z,92991.61
2018-03-29T02:22:06.911Z,92985.95
2018-03-29T02:24:34.660Z,92983.34
2018-03-29T02:27:02.337Z,92979.45
2018-03-29T02:29:30.826Z,92981.34
2018-03-29T02:31:58.479Z,92988.89
2018-03-29T02:34:26.152Z,92988.58
2018-03-29T02:36:53.913Z,92989.78
2018-03-29T02:39:21.506Z,92985.12
2018-03-29T02:41:49.674Z,92974.88
2018-03-29T02:44:18.052Z,92981.22
2018-03-29T02:46:45.682Z,92984.89
2018-03-29T02:49:13.335Z,92975.88
2018-03-29T02:51:40.991Z,92982.27
2018-03-29T02:54:08.763Z,92986.12
2018-03-29T02:56:36.537Z,92986.14
2018-03-29T02:59:04.193Z,92981.68
2018-03-29T03:01:31.835Z,92985.02
2018-03-29T03:03:59.423Z,92987.98
2018-03-29T03:06:27.069Z,92999.20
2018-03-29T03:08:55.389Z,93002.74
2018-03-29T03:11:23.899Z,93006.03
2018-03-29T03:13:52.105Z,93007.01
2018-03-29T03:16:19.869Z,92999.25
2018-03-29T03:18:47.532Z,93003.14
2018-03-29T03:21:15.203Z,93017.70
2018-03-29T03:23:43.763Z,93026.44
2018-03-29T03:26:11.544Z,93022.04
2018-03-29T03:28:39.171Z,93019.95
2018-03-29T03:31:06.884Z,93030.73
2018-03-29T03:33:34.514Z,93031.91
2018-03-29T03:36:02.141Z,93036.08
2018-03-29T03:38:29.920Z,93036.55
2018-03-29T03:40:57.738Z,93041.48
2018-03-29T03:43:25.599Z,93036.86
2018-03-29T03:45:53.458Z,93048.83
2018-03-29T03:48:21.095Z,93050.91
2018-03-29T03:50:48.994Z,93059.04
2018-03-29T03:53:16.850Z,93058.42
2018-03-29T03:55:44.618Z,93062.77
2018-03-29T03:58:12.215Z,93073.91
2018-03-29T04:00:40.066Z,93069.27
2018-03-29T04:03:07.680Z,93077.78
2018-03-29T04:05:35.484Z,93087.66
2018-03-29T04:08:03.090Z,93092.41
2018-03-29T04:10:30.819Z,93090.05
2018-03-29T04:12:58.645Z,93093.13
2018-03-29T04:15:26.275Z,93086.08
2018-03-29T04:17:53.881Z,93085.88
2018-03-29T04:20:21.556Z,93088.79
2018-03-29T04:22:49.394Z,93094.38
2018-03-29T04:25:17.046Z,93100.06
2018-03-29T04:27:44.620Z,93107.66
2018-03-29T04:30:12.297Z,93113.66
2018-03-29T04:32:40.795Z,93104.56
2018-03-29T04:35:08.965Z,93107.36
2018-03-29T04:37:37.360Z,93112.08
2018-03-29T04:40:05.422Z,93113.06
2018-03-29T04:42:33.473Z,93109.61
2018-03-29T04:45:01.346Z,93103.82
2018-03-29T04:47:29.771Z,93103.13
2018-03-29T04:49:57.491Z,93105.00
2018-03-29T04:52:25.577Z,93106.57
2018-03-29T04:54:53.222Z,93113.98
2018-03-29T04:57:21.002Z,93112.92
2018-03-29T04:59:48.929Z,93110.05
2018-03-29T05:02:17.296Z,93121.50
2018-03-29T05:04:45.360Z,93125.27
2018-03-29T05:07:13.089Z,93137.29
2018-03-29T05:09:40.706Z,93137.59
2018-03-29T05:12:08.616Z,93140.26
2018-03-29T05:14:36.464Z,93152.87
2018-03-29T05:17:04.146Z,93144.05
2018-03-29T05:19:31.806Z,93147.23
2018-03-29T05:21:59.479Z,93148.17
2018-03-29T05:24:27.651Z,93148.86
2018-03-29T05:26:55.644Z,93150.66
2018-03-29T05:29:23.245Z,93147.89
2018-03-29T05:31:50.923Z,93148.48
2018-03-29T05:34:19.076Z,93155.52
2018-03-29T05:36:47.288Z,93158.77
2018-03-29T05:39:15.781Z,93158.30
2018-03-29T05:41:43.635Z,93159.33
2018-03-29T05:44:11.492Z,93160.06
2018-03-29T05:46:39.822Z,93158.85
2018-03-29T05:49:07.582Z,93159.73
2018-03-29T05:51:35.414Z,93158.09
2018-03-29T05:54:03.275Z,93165.61
2018-03-29T05:56:31.531Z,93166.38
2018-03-29T05:59:00.755Z,93166.42
2018-03-29T06:01:28.518Z,93168.78
2018-03-29T06:03:56.181Z,93161.76
2018-03-29T06:06:24.029Z,93164.88
2018-03-29T06:08:51.694Z,93172.73
2018-03-29T06:11:19.581Z,93172.34
2018-03-29T06:13:52.750Z,93176.78
2018-03-29T06:16:20.670Z,93180.14
2018-03-29T06:18:48.917Z,93182.00
2018-03-29T06:21:16.587Z,93187.94
2018-03-29T06:23:45.268Z,93187.01
2018-03-29T06:26:12.919Z,93188.35
2018-03-29T06:28:41.696Z,93187.03
2018-03-29T06:31:09.551Z,93182.39
2018-03-29T06:33:37.341Z,93178.83
2018-03-29T06:36:05.799Z,93179.45
2018-03-29T06:38:33.454Z,93179.11
2018-03-29T06:41:01.253Z,93177.17
2018-03-29T06:43:28.933Z,93179.22
2018-03-29T06:45:57.383Z,93181.31
2018-03-29T06:48:25.365Z,93188.25
2018-03-29T06:50:53.555Z,93189.13
2018-03-29T06:53:21.260Z,93185.33
2018-03-29T06:55:48.923Z,93178.38
2018-03-29T06:58:16.678Z,93183.55
2018-03-29T07:00:44.396Z,93182.21
2018-03-29T07:03:12.254Z,93194.02
2018-03-29T07:05:40.308Z,93193.31
2018-03-29T07:08:07.973Z,93192.36
2018-03-29T07:10:35.660Z,93199.75
2018-03-29T07:13:03.325Z,93206.90
2018-03-29T07:15:31.036Z,93214.55
2018-03-29T07:17:59.465Z,93217.81
2018-03-29T07:20:27.263Z,93218.08
2018-03-29T07:22:54.983Z,93219.55
2018-03-29T07:25:22.589Z,93217.70
2018-03-29T07:27:50.321Z,93222.92
2018-03-29T07:30:17.996Z,93222.03
2018-03-29T07:32:45.927Z,93220.95
2018-03-29T07:35:13.767Z,93212.56
2018-03-29T07:37:41.791Z,93211.45
2018-03-29T07:40:09.649Z,93216.86
2018-03-29T07:42:39.075Z,93215.95
2018-03-29T07:45:07.160Z,93214.91
2018-03-29T07:47:35.105Z,93212.53
2018-03-29T07:50:02.943Z,93222.47
2018-03-29T07:52:31.010Z,93222.01
2018-03-29T07:54:59.529Z,93231.00
2018-03-29T07:57:27.444Z,93234.59
2018-03-29T07:59:55.224Z,93236.00
2018-03-29T08:02:22.863Z,93235.27
2018-03-29T08:04:50.771Z,93235.56
2018-03-29T08:07:18.454Z,93228.09
2018-03-29T08:09:47.093Z,93231.28
2018-03-29T08:12:15.003Z,93228.28
2018-03-29T08:14:43.379Z,93234.44
2018-03-29T08:17:11.231Z,93239.41
2018-03-29T08:19:38.866Z,93229.94
2018-03-29T08:22:06.647Z,93230.63
2018-03-29T08:24:35.054Z,93230.55
2018-03-29T08:27:03.097Z,93229.98
2018-03-29T08:29:31.293Z,93226.09
2018-03-29T08:31:59.257Z,93231.34
2018-03-29T08:34:27.595Z,93232.91
2018-03-29T08:36:56.033Z,93233.93
2018-03-29T08:39:25.377Z,93232.81
2018-03-29T08:41:53.812Z,93227.27
2018-03-29T08:44:21.880Z,93231.06
2018-03-29T08:46:49.856Z,93222.11
2018-03-29T08:49:17.608Z,93223.62
2018-03-29T08:51:46.302Z,93226.50
2018-03-29T08:54:14.602Z,93222.40
2018-03-29T08:56:42.217Z,93225.83
2018-03-29T08:59:09.845Z,93225.82
2018-03-29T09:01:37.576Z,93221.67
2018-03-29T09:04:05.415Z,93217.43
2018-03-29T09:06:33.103Z,93226.04
2018-03-29T09:09:00.781Z,93222.72
2018-03-29T09:11:28.408Z,93217.98
2018-03-29T09:13:56.073Z,93224.86
2018-03-29T09:16:24.120Z,93221.28
2018-03-29T09:18:51.807Z,93220.85
2018-03-29T09:21:19.688Z,93214.58
2018-03-29T09:23:48.545Z,93223.81
2018-03-29T09:26:16.436Z,93218.88
2018-03-29T09:28:45.134Z,93222.12
2018-03-29T09:31:13.817Z,93219.75
2018-03-29T09:33:41.654Z,93216.33
2018-03-29T09:36:09.451Z,93219.52
2018-03-29T09:38:37.208Z,93215.69
2018-03-29T09:41:05.288Z,93218.17
2018-03-29T09:43:32.884Z,93219.79
2018-03-29T09:46:01.023Z,93220.69
2018-03-29T09:48:29.536Z,93215.85
2018-03-29T09:50:57.364Z,93217.82
2018-03-29T09:53:25.030Z,93213.27
2018-03-29T09:55:53.022Z,93219.28
2018-03-29T09:58:20.762Z,93217.43
2018-03-29T10:00:48.733Z,93218.28
2018-03-29T10:03:22.996Z,93222.97
2018-03-29T10:05:51.840Z,93218.54
2018-03-29T10:08:19.676Z,93222.00
2018-03-29T10:10:47.523Z,93216.10
2018-03-29T10:13:16.146Z,93218.14
2018-03-29T10:15:44.008Z,93214.97
2018-03-29T10:18:12.098Z,93217.26
2018-03-29T10:20:39.958Z,93213.30
2018-03-29T10:23:07.884Z,93213.44
2018-03-29T10:25:35.502Z,93213.77
2018-03-29T10:28:03.336Z,93214.86
2018-03-29T10:30:31.227Z,93207.09
2018-03-29T10:32:59.101Z,93207.83
2018-03-29T10:35:26.967Z,93214.56
2018-03-29T10:37:54.570Z,93206.75
2018-03-29T10:40:22.494Z,93202.02
2018-03-29T10:42:50.421Z,93195.99
2018-03-29T10:45:18.314Z,93191.80
2018-03-29T10:47:45.993Z,93186.50
2018-03-29T10:50:14.323Z,93183.07
2018-03-29T10:52:42.312Z,93191.68
2018-03-29T10:55:10.405Z,93187.85
2018-03-29T10:57:38.275Z,93195.53
2018-03-29T11:00:06.353Z,93190.13
2018-03-29T11:02:34.426Z,93191.49
2018-03-29T11:05:02.499Z,93188.60
2018-03-29T11:07:30.972Z,93188.30
2018-03-29T11:09:58.987Z,93189.78
2018-03-29T11:12:26.724Z,93195.20
2018-03-29T11:14:54.786Z,93192.59
2018-03-29T11:17:22.856Z,93188.76
2018-03-29T11:19:50.790Z,93189.91
2018-03-29T11:22:18.458Z,93191.57
2018-03-29T11:24:46.256Z,93186.67
2018-03-29T11:27:14.926Z,93186.80
2018-03-29T11:29:42.802Z,93196.96
2018-03-29T11:32:10.474Z,93190.52
2018-03-29T11:34:39.126Z,93188.71
2018-03-29T11:37:07.230Z,93192.44
2018-03-29T11:39:35.086Z,93185.44
2018-03-29T11:42:02.949Z,93187.73
2018-03-29T11:44:30.628Z,93190.39
2018-03-29T11:46:59.013Z,93190.72
2018-03-29T11:49:27.292Z,93195.37
2018-03-29T11:51:55.258Z,93196.78
2018-03-29T11:54:23.933Z,93192.69
2018-03-29T11:56:52.208Z,93194.84
2018-03-29T11:59:20.074Z,93191.77
2018-03-29T12:01:47.985Z,93193.64
2018-03-29T12:04:16.023Z,93197.92
2018-03-29T12:06:44.501Z,93194.75
2018-03-29T12:09:13.803Z,93199.40
2018-03-29T12:11:42.041Z,93194.01
2018-03-29T12:14:10.444Z,93197.22
2018-03-29T12:16:38.101Z,93202.83
2018-03-29T12:19:06.286Z,93204.40
2018-03-29T12:21:33.961Z,93200.29
2018-03-29T12:24:02.136Z,93201.61
2018-03-29T12:26:29.723Z,93206.48
2018-03-29T12:28:57.453Z,93213.81
2018-03-29T12:31:25.796Z,93212.23
2018-03-29T12:33:53.598Z,93210.37
2018-03-29T12:36:21.244Z,93215.50
2018-03-29T12:38:49.128Z,93213.61
2018-03-29T12:41:17.471Z,93218.94
2018-03-29T12:43:45.119Z,93212.70
2018-03-29T12:46:12.758Z,93218.28
2018-03-29T12:48:40.574Z,93216.81
2018-03-29T12:51:08.290Z,93212.75
2018-03-29T12:53:35.917Z,93214.34
2018-03-29T12:56:03.636Z,93213.84
2018-03-29T12:58:31.439Z,93218.73
2018-03-29T13:00:59.341Z,93222.73
2018-03-29T13:03:27.194Z,93220.77
2018-03-29T13:05:55.172Z,93229.86
2018-03-29T13:08:22.978Z,93225.83
2018-03-29T13:10:50.666Z,93223.80
2018-03-29T13:13:18.449Z,93228.59
2018-03-29T13:15:46.089Z,93229.41
2018-03-29T13:18:13.761Z,93230.70
2018-03-29T13:20:41.634Z,93223.30
2018-03-29T13:23:10.242Z,93220.20
2018-03-29T13:25:38.728Z,93220.03
2018-03-29T13:28:06.465Z,93215.76
2018-03-29T13:30:34.147Z,93214.86
2018-03-29T13:33:01.764Z,93215.02
2018-03-29T13:35:29.450Z,93218.61
2018-03-29T13:37:57.121Z,93223.01
2018-03-29T13:40:24.762Z,93214.59
2018-03-29T13:42:52.831Z,93208.69
2018-03-29T13:45:21.038Z,93207.20
2018-03-29T13:47:48.795Z,93205.74
2018-03-29T13:50:16.864Z,93211.88
2018-03-29T13:52:44.535Z,93211.25
2018-03-29T13:55:12.907Z,93208.55
2018-03-29T13:57:41.041Z,93206.92
2018-03-29T14:00:09.462Z,93204.62
2018-03-29T14:02:37.324Z,93209.08
2018-03-29T14:05:04.966Z,93214.07
2018-03-29T14:07:32.675Z,93212.39
2018-03-29T14:10:00.400Z,93216.72
2018-03-29T14:12:28.091Z,93210.80
2018-03-29T14:14:55.886Z,93212.05
2018-03-29T14:17:23.919Z,93200.19
2018-03-29T14:19:52.550Z,93198.09
2018-03-29T14:22:20.271Z,93200.89
2018-03-29T14:24:47.941Z,93205.20
2018-03-29T14:27:15.739Z,93209.13
2018-03-29T14:29:43.378Z,93211.70
2018-03-29T14:32:11.216Z,93215.42
2018-03-29T14:34:38.941Z,93216.42
2018-03-29T14:37:06.680Z,93215.76
2018-03-29T14:39:34.377Z,93211.05
2018-03-29T14:42:02.165Z,93208.95
2018-03-29T14:44:29.896Z,93203.89
2018-03-29T14:46:57.636Z,93208.16
2018-03-29T14:49:25.379Z,93202.56
2018-03-29T14:51:53.065Z,93205.49
2018-03-29T14:54:22.233Z,93200.19
2018-03-29T14:56:50.208Z,93192.00
2018-03-29T14:59:18.375Z,93195.00
2018-03-29T15:01:46.332Z,93194.27
2018-03-29T15:04:14.194Z,93196.58
2018-03-29T15:06:41.857Z,93187.45
2018-03-29T15:09:09.526Z,93193.25
2018-03-29T15:11:37.301Z,93184.92
2018-03-29T15:14:05.888Z,93190.03
2018-03-29T15:16:34.572Z,93181.20
2018-03-29T15:19:02.437Z,93182.53
2018-03-29T15:21:30.736Z,93183.30
2018-03-29T15:23:59.607Z,93188.20
2018-03-29T15:26:27.905Z,93196.34
2018-03-29T15:28:56.013Z,93201.01
2018-03-29T15:31:25.155Z,93211.12
2018-03-29T15:33:53.022Z,93205.13
2018-03-29T15:36:21.768Z,93199.14
2018-03-29T15:38:49.786Z,93184.80
2018-03-29T15:41:18.877Z,93180.39
2018-03-29T15:43:46.815Z,93196.59
2018-03-29T15:46:14.551Z,93216.78
2018-03-29T15:48:43.866Z,93217.67
2018-03-29T15:51:11.571Z,93216.06
2018-03-29T15:53:39.191Z,93212.98
2018-03-29T15:56:06.869Z,93224.34
2018-03-29T15:58:34.758Z,93242.52
2018-03-29T16:01:02.490Z,93247.16
2018-03-29T16:03:30.085Z,93239.53
2018-03-29T16:05:57.776Z,93231.94
2018-03-29T16:08:25.494Z,93235.77
2018-03-29T16:10:53.177Z,93248.06
2018-03-29T16:13:20.981Z,93247.56
2018-03-29T16:15:48.713Z,93247.22
2018-03-29T16:18:16.397Z,93251.22
2018-03-29T16:20:44.133Z,93250.40
2018-03-29T16:23:11.775Z,93251.62
2018-03-29T16:25:42.360Z,93253.77
2018-03-29T16:28:10.727Z,93253.77
2018-03-29T16:30:38.374Z,93254.80
2018-03-29T16:33:06.152Z,93254.66
2018-03-29T16:35:33.845Z,93257.03
2018-03-29T16:38:02.444Z,93262.63
2018-03-29T16:40:30.120Z,93259.34
2018-03-29T16:42:57.781Z,93263.39
2018-03-29T16:45:26.111Z,93269.52
2018-03-29T16:47:53.791Z,93274.31
2018-03-29T16:50:22.103Z,93278.50
2018-03-29T16:52:49.851Z,93289.50
2018-03-29T16:55:17.504Z,93291.23
2018-03-29T16:57:45.384Z,93292.07
2018-03-29T17:00:13.233Z,93303.43
2018-03-29T17:02:40.926Z,93313.55
2018-03-29T17:05:08.559Z,93317.80
2018-03-29T17:07:36.314Z,93331.95
2018-03-29T17:10:04.106Z,93334.12
2018-03-29T17:12:31.794Z,93346.63
2018-03-29T17:15:00.775Z,93351.59
2018-03-29T17:17:28.444Z,93357.58
2018-03-29T17:19:56.118Z,93370.86
2018-03-29T17:22:23.795Z,93377.17
2018-03-29T17:24:51.503Z,93386.88
2018-03-29T17:27:19.362Z,93390.41
2018-03-29T17:29:47.232Z,93394.84
2018-03-29T17:32:14.989Z,93394.16
2018-03-29T17:34:42.668Z,93399.24
2018-03-29T17:37:10.339Z,93398.83
2018-03-29T17:39:38.307Z,93394.59
2018-03-29T17:42:06.040Z,93396.38
2018-03-29T17:44:33.948Z,93397.76
2018-03-29T17:47:02.421Z,93407.43
2018-03-29T17:49:30.205Z,93406.92
2018-03-29T17:51:57.997Z,93412.57
2018-03-29T17:54:25.713Z,93410.25
2018-03-29T17:56:53.556Z,93403.59
2018-03-29T17:59:21.183Z,93413.19
2018-03-29T18:01:48.889Z,93417.67
2018-03-29T18:04:16.547Z,93423.63
2018-03-29T18:06:44.260Z,93437.05
2018-03-29T18:09:12.876Z,93449.77
2018-03-29T18:11:40.582Z,93453.70
2018-03-29T18:14:08.350Z,93449.94
2018-03-29T18:16:36.413Z,93439.93
2018-03-29T18:19:04.214Z,93437.47
2018-03-29T18:21:31.957Z,93443.47
2018-03-29T18:23:59.839Z,93448.61
2018-03-29T18:26:27.677Z,93451.22
2018-03-29T18:28:55.400Z,93439.93
2018-03-29T18:31:23.292Z,93442.71
2018-03-29T18:33:51.146Z,93450.89
2018-03-29T18:36:19.602Z,93447.33
2018-03-29T18:38:47.348Z,93454.55
2018-03-29T18:41:15.286Z,93455.76
2018-03-29T18:43:43.045Z,93459.13
2018-03-29T18:46:10.815Z,93459.44
2018-03-29T18:48:38.535Z,93459.67
2018-03-29T18:51:06.342Z,93453.94
2018-03-29T18:53:33.998Z,93464.08
2018-03-29T18:56:05.365Z,93466.15
2018-03-29T18:58:33.158Z,93479.12
2018-03-29T19:01:01.941Z,93469.52
2018-03-29T19:03:29.700Z,93470.50
2018-03-29T19:05:57.388Z,93471.30
2018-03-29T19:08:25.041Z,93468.00
2018-03-29T19:10:53.254Z,93477.73
2018-03-29T19:13:21.200Z,93479.81
2018-03-29T19:15:48.863Z,93483.89
2018-03-29T19:18:18.228Z,93482.70
2018-03-29T19:20:46.798Z,93486.17
2018-03-29T19:23:14.563Z,93496.56
2018-03-29T19:25:43.035Z,93498.41
2018-03-29T19:28:10.817Z,93504.77
2018-03-29T19:30:38.607Z,93498.23
2018-03-29T19:33:06.440Z,93496.06
2018-03-29T19:35:34.145Z,93501.60
2018-03-29T19:38:01.769Z,93503.67
2018-03-29T19:40:29.715Z,93498.44
2018-03-29T19:42:57.356Z,93500.49
2018-03-29T19:45:25.005Z,93509.00
2018-03-29T19:47:53.675Z,93506.23
2018-03-29T19:50:21.443Z,93515.24
2018-03-29T19:52:49.146Z,93515.63
2018-03-29T19:55:16.748Z,93519.00
2018-03-29T19:57:44.654Z,93529.30
2018-03-29T20:00:12.327Z,93531.97
2018-03-29T20:02:39.990Z,93539.09
2018-03-29T20:05:07.824Z,93541.28
2018-03-29T20:07:35.527Z,93550.48
2018-03-29T20:10:03.153Z,93549.09
2018-03-29T20:12:30.859Z,93550.30
2018-03-29T20:14:59.073Z,93556.12
2018-03-29T20:17:27.056Z,93543.44
2018-03-29T20:19:54.772Z,93542.45
2018-03-29T20:22:22.600Z,93539.68
2018-03-29T20:24:50.255Z,93539.09
2018-03-29T20:27:18.020Z,93532.16
2018-03-29T20:29:45.701Z,93526.92
2018-03-29T20:32:13.495Z,93532.38
2018-03-29T20:34:41.410Z,93528.13
2018-03-29T20:37:09.160Z,93534.05
2018-03-29T20:39:36.990Z,93534.23
2018-03-29T20:42:04.669Z,93537.23
2018-03-29T20:44:32.416Z,93540.66
2018-03-29T20:47:00.238Z,93541.55
2018-03-29T20:49:27.964Z,93540.17
2018-03-29T20:51:55.687Z,93548.59
2018-03-29T20:54:23.374Z,93557.11
2018-03-29T20:56:51.202Z,93554.05
2018-03-29T20:59:18.961Z,93555.13
2018-03-29T21:01:46.599Z,93556.22
2018-03-29T21:04:14.488Z,93542.95
2018-03-29T21:06:42.167Z,93542.38
2018-03-29T21:09:09.810Z,93542.36
2018-03-29T21:11:37.422Z,93542.16
2018-03-29T21:14:05.136Z,93548.08
2018-03-29T21:16:32.738Z,93548.28
2018-03-29T21:19:00.525Z,93551.67
2018-03-29T21:21:28.252Z,93553.55
2018-03-29T21:23:55.920Z,93556.30
2018-03-29T21:26:23.588Z,93552.55
2018-03-29T21:28:51.221Z,93552.53
2018-03-29T21:31:18.880Z,93554.02
2018-03-29T21:33:46.507Z,93555.70
2018-03-29T21:36:14.173Z,93562.73
2018-03-29T21:38:41.853Z,93567.98
2018-03-29T21:41:09.520Z,93558.47
2018-03-29T21:43:38.185Z,93561.75
2018-03-29T21:46:05.990Z,93570.75
2018-03-29T21:48:33.597Z,93567.95
2018-03-29T21:51:01.311Z,93564.42
2018-03-29T21:53:29.035Z,93567.98
2018-03-29T21:55:56.623Z,93565.53
2018-03-29T21:58:24.308Z,93570.74
2018-03-29T22:00:51.938Z,93566.39
2018-03-29T22:03:19.653Z,93560.34
2018-03-29T22:05:47.276Z,93561.45
2018-03-29T22:08:14.936Z,93564.59
2018-03-29T22:10:42.642Z,93572.81
2018-03-29T22:13:10.417Z,93572.02
2018-03-29T22:15:38.039Z,93574.38
2018-03-29T22:18:05.731Z,93575.77
2018-03-29T22:20:33.483Z,93578.63
2018-03-29T22:23:01.071Z,93583.17
2018-03-29T22:25:28.763Z,93588.84
2018-03-29T22:27:56.363Z,93590.41
2018-03-29T22:30:23.995Z,93594.56
2018-03-29T22:32:51.612Z,93596.35
2018-03-29T22:35:19.244Z,93601.99
2018-03-29T22:37:46.941Z,93608.70
2018-03-29T22:40:14.594Z,93603.86
2018-03-29T22:42:42.220Z,93598.42
2018-03-29T22:45:09.873Z,93597.05
2018-03-29T22:47:38.601Z,93593.27
2018-03-29T22:50:06.261Z,93590.53
2018-03-29T22:52:33.880Z,93582.81
2018-03-29T22:55:01.545Z,93591.22
2018-03-29T22:57:29.141Z,93590.22
2018-03-29T22:59:56.808Z,93591.78
2018-03-29T23:02:24.425Z,93597.11
2018-03-29T23:04:52.053Z,93596.70
2018-03-29T23:07:19.729Z,93597.09
2018-03-29T23:09:47.317Z,93597.80
2018-03-29T23:12:14.953Z,93603.54
2018-03-29T23:14:42.583Z,93603.03
2018-03-29T23:17:10.240Z,93613.62
2018-03-29T23:19:37.896Z,93611.73
2018-03-29T23:22:05.485Z,93606.68
2018-03-29T23:24:33.144Z,93610.55
2018-03-29T23:27:00.800Z,93607.02
2018-03-29T23:29:28.465Z,93606.62
2018-03-29T23:31:56.065Z,93606.13
2018-03-29T23:34:23.734Z,93613.84
2018-03-29T23:36:51.407Z,93600.68
2018-03-29T23:39:18.999Z,93604.42
2018-03-29T23:41:46.609Z,93594.36
2018-03-29T23:44:14.281Z,93589.92
2018-03-29T23:46:43.244Z,93586.67
2018-03-29T23:49:11.076Z,93593.28
2018-03-29T23:51:38.701Z,93591.27
2018-03-29T23:54:06.347Z,93596.43
2018-03-29T23:56:33.955Z,93601.28
2018-03-29T23:59:01.592Z,93600.88
